sensor_id;sensor_type;location;lat;lon;timestamp;temperature;humidity
17346;DHT22;8790;53.590;10.002;2023-05-07T00:01:09;10.40;99.90
17346;DHT22;8790;53.590;10.002;2023-05-07T00:03:41;10.40;99.90
17346;DHT22;8790;53.590;10.002;2023-05-07T00:06:14;10.40;99.90
17346;DHT22;8790;53.590;10.002;2023-05-07T00:08:46;10.40;99.90
17346;DHT22;8790;53.590;10.002;2023-05-07T00:11:18;10.40;99.90
17346;DHT22;8790;53.590;10.002;2023-05-07T00:13:50;10.40;99.90
17346;DHT22;8790;53.590;10.002;2023-05-07T00:16:22;10.30;99.90
17346;DHT22;8790;53.590;10.002;2023-05-07T00:18:53;10.30;99.90
17346;DHT22;8790;53.590;10.002;2023-05-07T00:21:26;10.30;99.90
17346;DHT22;8790;53.590;10.002;2023-05-07T00:23:58;10.30;99.90
17346;DHT22;8790;53.590;10.002;2023-05-07T00:26:30;10.30;99.90
17346;DHT22;8790;53.590;10.002;2023-05-07T00:29:01;10.20;99.90
17346;DHT22;8790;53.590;10.002;2023-05-07T00:31:33;10.30;99.90
17346;DHT22;8790;53.590;10.002;2023-05-07T00:34:05;10.30;99.90
17346;DHT22;8790;53.590;10.002;2023-05-07T00:36:38;10.30;99.90
17346;DHT22;8790;53.590;10.002;2023-05-07T00:39:10;10.30;99.90
17346;DHT22;8790;53.590;10.002;2023-05-07T00:41:42;10.30;99.90
17346;DHT22;8790;53.590;10.002;2023-05-07T00:44:14;10.30;99.90
17346;DHT22;8790;53.590;10.002;2023-05-07T00:46:45;10.30;99.90
17346;DHT22;8790;53.590;10.002;2023-05-07T00:49:20;10.40;99.90
17346;DHT22;8790;53.590;10.002;2023-05-07T00:51:53;10.40;99.90
17346;DHT22;8790;53.590;10.002;2023-05-07T00:54:25;10.40;99.90
17346;DHT22;8790;53.590;10.002;2023-05-07T00:56:57;10.40;99.90
17346;DHT22;8790;53.590;10.002;2023-05-07T00:59:28;10.40;99.90
17346;DHT22;8790;53.590;10.002;2023-05-07T01:02:00;10.30;99.90
17346;DHT22;8790;53.590;10.002;2023-05-07T01:04:32;10.40;99.90
17346;DHT22;8790;53.590;10.002;2023-05-07T01:07:05;10.30;99.90
17346;DHT22;8790;53.590;10.002;2023-05-07T01:09:37;10.40;99.90
17346;DHT22;8790;53.590;10.002;2023-05-07T01:12:09;10.30;99.90
17346;DHT22;8790;53.590;10.002;2023-05-07T01:14:41;10.30;99.90
17346;DHT22;8790;53.590;10.002;2023-05-07T01:17:13;10.30;99.90
17346;DHT22;8790;53.590;10.002;2023-05-07T01:19:45;10.30;99.90
17346;DHT22;8790;53.590;10.002;2023-05-07T01:22:25;10.30;99.90
17346;DHT22;8790;53.590;10.002;2023-05-07T01:25:00;10.40;99.90
17346;DHT22;8790;53.590;10.002;2023-05-07T01:27:34;10.40;99.90
17346;DHT22;8790;53.590;10.002;2023-05-07T01:30:07;10.40;99.90
17346;DHT22;8790;53.590;10.002;2023-05-07T01:32:42;10.40;99.90
17346;DHT22;8790;53.590;10.002;2023-05-07T01:35:18;10.40;99.90
17346;DHT22;8790;53.590;10.002;2023-05-07T01:37:52;10.40;99.90
17346;DHT22;8790;53.590;10.002;2023-05-07T01:40:25;10.30;99.90
17346;DHT22;8790;53.590;10.002;2023-05-07T01:42:57;10.30;99.90
17346;DHT22;8790;53.590;10.002;2023-05-07T01:45:30;10.30;99.90
17346;DHT22;8790;53.590;10.002;2023-05-07T01:48:03;10.30;99.90
17346;DHT22;8790;53.590;10.002;2023-05-07T01:50:35;10.30;99.90
17346;DHT22;8790;53.590;10.002;2023-05-07T01:53:09;10.30;99.90
17346;DHT22;8790;53.590;10.002;2023-05-07T01:55:41;10.40;99.90
17346;DHT22;8790;53.590;10.002;2023-05-07T01:58:13;10.40;99.90
17346;DHT22;8790;53.590;10.002;2023-05-07T02:00:45;10.40;99.90
17346;DHT22;8790;53.590;10.002;2023-05-07T02:03:17;10.40;99.90
17346;DHT22;8790;53.590;10.002;2023-05-07T02:05:57;10.30;99.90
17346;DHT22;8790;53.590;10.002;2023-05-07T02:08:36;10.30;99.90
17346;DHT22;8790;53.590;10.002;2023-05-07T02:11:08;10.40;99.90
17346;DHT22;8790;53.590;10.002;2023-05-07T02:13:41;10.40;99.90
17346;DHT22;8790;53.590;10.002;2023-05-07T02:16:13;10.30;99.90
17346;DHT22;8790;53.590;10.002;2023-05-07T02:18:45;10.30;99.90
17346;DHT22;8790;53.590;10.002;2023-05-07T02:21:17;10.30;99.90
17346;DHT22;8790;53.590;10.002;2023-05-07T02:23:50;10.30;99.90
17346;DHT22;8790;53.590;10.002;2023-05-07T02:26:22;10.30;99.90
17346;DHT22;8790;53.590;10.002;2023-05-07T02:28:54;10.20;99.90
17346;DHT22;8790;53.590;10.002;2023-05-07T02:31:26;10.20;99.90
17346;DHT22;8790;53.590;10.002;2023-05-07T02:33:58;10.20;99.90
17346;DHT22;8790;53.590;10.002;2023-05-07T02:36:30;10.20;99.90
17346;DHT22;8790;53.590;10.002;2023-05-07T02:39:09;10.30;99.90
17346;DHT22;8790;53.590;10.002;2023-05-07T02:41:41;10.20;99.90
17346;DHT22;8790;53.590;10.002;2023-05-07T02:44:13;10.30;99.90
17346;DHT22;8790;53.590;10.002;2023-05-07T02:46:45;10.30;99.90
17346;DHT22;8790;53.590;10.002;2023-05-07T02:49:17;10.30;99.90
17346;DHT22;8790;53.590;10.002;2023-05-07T02:51:49;10.30;99.90
17346;DHT22;8790;53.590;10.002;2023-05-07T02:54:26;10.30;99.90
17346;DHT22;8790;53.590;10.002;2023-05-07T02:56:58;10.20;99.90
17346;DHT22;8790;53.590;10.002;2023-05-07T02:59:31;10.20;99.90
17346;DHT22;8790;53.590;10.002;2023-05-07T03:02:03;10.20;99.90
17346;DHT22;8790;53.590;10.002;2023-05-07T03:04:35;10.20;99.90
17346;DHT22;8790;53.590;10.002;2023-05-07T03:07:07;10.20;99.90
17346;DHT22;8790;53.590;10.002;2023-05-07T03:09:40;10.20;99.90
17346;DHT22;8790;53.590;10.002;2023-05-07T03:12:12;10.20;99.90
17346;DHT22;8790;53.590;10.002;2023-05-07T03:14:44;10.20;99.90
17346;DHT22;8790;53.590;10.002;2023-05-07T03:17:15;10.20;99.90
17346;DHT22;8790;53.590;10.002;2023-05-07T03:19:47;10.20;99.90
17346;DHT22;8790;53.590;10.002;2023-05-07T03:22:19;10.10;99.90
17346;DHT22;8790;53.590;10.002;2023-05-07T03:24:52;10.00;99.90
17346;DHT22;8790;53.590;10.002;2023-05-07T03:27:24;10.10;99.90
17346;DHT22;8790;53.590;10.002;2023-05-07T03:29:57;10.10;99.90
17346;DHT22;8790;53.590;10.002;2023-05-07T03:32:29;10.10;99.90
17346;DHT22;8790;53.590;10.002;2023-05-07T03:35:01;10.20;99.90
17346;DHT22;8790;53.590;10.002;2023-05-07T03:37:33;10.10;99.90
17346;DHT22;8790;53.590;10.002;2023-05-07T03:40:08;10.20;99.90
17346;DHT22;8790;53.590;10.002;2023-05-07T03:42:47;10.10;99.90
17346;DHT22;8790;53.590;10.002;2023-05-07T03:45:21;10.20;99.90
17346;DHT22;8790;53.590;10.002;2023-05-07T03:48:02;10.10;99.90
17346;DHT22;8790;53.590;10.002;2023-05-07T03:50:34;10.10;99.90
17346;DHT22;8790;53.590;10.002;2023-05-07T03:53:06;10.10;99.90
17346;DHT22;8790;53.590;10.002;2023-05-07T03:55:43;10.10;99.90
17346;DHT22;8790;53.590;10.002;2023-05-07T03:58:16;10.20;99.90
17346;DHT22;8790;53.590;10.002;2023-05-07T04:00:48;10.20;99.90
17346;DHT22;8790;53.590;10.002;2023-05-07T04:03:27;10.10;99.90
17346;DHT22;8790;53.590;10.002;2023-05-07T04:06:02;10.20;99.90
17346;DHT22;8790;53.590;10.002;2023-05-07T04:08:35;10.20;99.90
17346;DHT22;8790;53.590;10.002;2023-05-07T04:11:09;10.20;99.90
17346;DHT22;8790;53.590;10.002;2023-05-07T04:13:42;10.10;99.90
17346;DHT22;8790;53.590;10.002;2023-05-07T04:16:14;10.10;99.90
17346;DHT22;8790;53.590;10.002;2023-05-07T04:18:46;10.10;99.90
17346;DHT22;8790;53.590;10.002;2023-05-07T04:21:18;10.20;99.90
17346;DHT22;8790;53.590;10.002;2023-05-07T04:23:51;10.20;99.90
17346;DHT22;8790;53.590;10.002;2023-05-07T04:26:25;10.20;99.90
17346;DHT22;8790;53.590;10.002;2023-05-07T04:28:57;10.20;99.90
17346;DHT22;8790;53.590;10.002;2023-05-07T04:31:34;10.20;99.90
17346;DHT22;8790;53.590;10.002;2023-05-07T04:34:06;10.10;99.90
17346;DHT22;8790;53.590;10.002;2023-05-07T04:36:38;10.10;99.90
17346;DHT22;8790;53.590;10.002;2023-05-07T04:39:14;10.10;99.90
17346;DHT22;8790;53.590;10.002;2023-05-07T04:41:50;10.20;99.90
17346;DHT22;8790;53.590;10.002;2023-05-07T04:44:22;10.20;99.90
17346;DHT22;8790;53.590;10.002;2023-05-07T04:46:54;10.20;99.90
17346;DHT22;8790;53.590;10.002;2023-05-07T04:49:26;10.10;99.90
17346;DHT22;8790;53.590;10.002;2023-05-07T04:51:59;10.10;99.90
17346;DHT22;8790;53.590;10.002;2023-05-07T04:54:31;10.20;99.90
17346;DHT22;8790;53.590;10.002;2023-05-07T04:57:05;10.20;99.90
17346;DHT22;8790;53.590;10.002;2023-05-07T04:59:37;10.20;99.90
17346;DHT22;8790;53.590;10.002;2023-05-07T05:02:09;10.20;99.90
17346;DHT22;8790;53.590;10.002;2023-05-07T05:04:41;10.20;99.90
17346;DHT22;8790;53.590;10.002;2023-05-07T05:07:13;10.20;99.90
17346;DHT22;8790;53.590;10.002;2023-05-07T05:09:45;10.20;99.90
17346;DHT22;8790;53.590;10.002;2023-05-07T05:12:19;10.30;99.90
17346;DHT22;8790;53.590;10.002;2023-05-07T05:14:51;10.30;99.90
17346;DHT22;8790;53.590;10.002;2023-05-07T05:17:23;10.30;99.90
17346;DHT22;8790;53.590;10.002;2023-05-07T05:19:54;10.30;99.90
17346;DHT22;8790;53.590;10.002;2023-05-07T05:22:27;10.30;99.90
17346;DHT22;8790;53.590;10.002;2023-05-07T05:25:00;10.30;99.90
17346;DHT22;8790;53.590;10.002;2023-05-07T05:27:34;10.20;99.90
17346;DHT22;8790;53.590;10.002;2023-05-07T05:30:07;10.30;99.90
17346;DHT22;8790;53.590;10.002;2023-05-07T05:32:39;10.30;99.90
17346;DHT22;8790;53.590;10.002;2023-05-07T05:35:11;10.30;99.90
17346;DHT22;8790;53.590;10.002;2023-05-07T05:37:44;10.40;99.90
17346;DHT22;8790;53.590;10.002;2023-05-07T05:40:16;10.30;99.90
17346;DHT22;8790;53.590;10.002;2023-05-07T05:42:49;10.30;99.90
17346;DHT22;8790;53.590;10.002;2023-05-07T05:45:22;10.30;99.90
17346;DHT22;8790;53.590;10.002;2023-05-07T05:47:56;10.30;99.90
17346;DHT22;8790;53.590;10.002;2023-05-07T05:50:28;10.30;99.90
17346;DHT22;8790;53.590;10.002;2023-05-07T05:52:59;10.30;99.90
17346;DHT22;8790;53.590;10.002;2023-05-07T05:55:32;10.40;99.90
17346;DHT22;8790;53.590;10.002;2023-05-07T05:58:05;10.30;99.90
17346;DHT22;8790;53.590;10.002;2023-05-07T06:00:41;10.40;99.90
17346;DHT22;8790;53.590;10.002;2023-05-07T06:03:12;10.40;99.90
17346;DHT22;8790;53.590;10.002;2023-05-07T06:05:44;10.40;99.90
17346;DHT22;8790;53.590;10.002;2023-05-07T06:08:16;10.40;99.90
17346;DHT22;8790;53.590;10.002;2023-05-07T06:10:49;10.40;99.90
17346;DHT22;8790;53.590;10.002;2023-05-07T06:13:22;10.40;99.90
17346;DHT22;8790;53.590;10.002;2023-05-07T06:15:55;10.40;99.90
17346;DHT22;8790;53.590;10.002;2023-05-07T06:18:27;10.40;99.90
17346;DHT22;8790;53.590;10.002;2023-05-07T06:20:59;10.40;99.90
17346;DHT22;8790;53.590;10.002;2023-05-07T06:23:34;10.40;99.90
17346;DHT22;8790;53.590;10.002;2023-05-07T06:26:07;10.50;99.90
17346;DHT22;8790;53.590;10.002;2023-05-07T06:28:45;10.50;99.90
17346;DHT22;8790;53.590;10.002;2023-05-07T06:31:19;10.50;99.90
17346;DHT22;8790;53.590;10.002;2023-05-07T06:33:59;10.50;99.90
17346;DHT22;8790;53.590;10.002;2023-05-07T06:36:37;10.50;99.90
17346;DHT22;8790;53.590;10.002;2023-05-07T06:39:18;10.50;99.90
17346;DHT22;8790;53.590;10.002;2023-05-07T06:41:50;10.60;99.90
17346;DHT22;8790;53.590;10.002;2023-05-07T06:44:30;10.40;99.90
17346;DHT22;8790;53.590;10.002;2023-05-07T06:47:14;10.50;99.90
17346;DHT22;8790;53.590;10.002;2023-05-07T06:49:46;10.50;99.90
17346;DHT22;8790;53.590;10.002;2023-05-07T06:52:21;10.50;99.90
17346;DHT22;8790;53.590;10.002;2023-05-07T06:54:55;10.60;99.90
17346;DHT22;8790;53.590;10.002;2023-05-07T06:57:28;10.50;99.90
17346;DHT22;8790;53.590;10.002;2023-05-07T07:00:01;10.60;99.90
17346;DHT22;8790;53.590;10.002;2023-05-07T07:02:36;10.50;99.90
17346;DHT22;8790;53.590;10.002;2023-05-07T07:05:09;10.60;99.90
17346;DHT22;8790;53.590;10.002;2023-05-07T07:07:42;10.60;99.90
17346;DHT22;8790;53.590;10.002;2023-05-07T07:10:14;10.60;99.90
17346;DHT22;8790;53.590;10.002;2023-05-07T07:12:46;10.60;99.90
17346;DHT22;8790;53.590;10.002;2023-05-07T07:15:19;10.60;99.90
17346;DHT22;8790;53.590;10.002;2023-05-07T07:17:53;10.70;99.90
17346;DHT22;8790;53.590;10.002;2023-05-07T07:20:24;10.80;99.90
17346;DHT22;8790;53.590;10.002;2023-05-07T07:22:56;10.80;99.90
17346;DHT22;8790;53.590;10.002;2023-05-07T07:25:28;10.70;99.90
17346;DHT22;8790;53.590;10.002;2023-05-07T07:28:00;10.80;99.90
17346;DHT22;8790;53.590;10.002;2023-05-07T07:30:34;10.80;99.90
17346;DHT22;8790;53.590;10.002;2023-05-07T07:33:06;10.90;99.90
17346;DHT22;8790;53.590;10.002;2023-05-07T07:35:41;10.90;99.90
17346;DHT22;8790;53.590;10.002;2023-05-07T07:38:12;10.90;99.90
17346;DHT22;8790;53.590;10.002;2023-05-07T07:40:44;10.90;99.90
17346;DHT22;8790;53.590;10.002;2023-05-07T07:43:16;10.90;99.90
17346;DHT22;8790;53.590;10.002;2023-05-07T07:45:50;10.90;99.90
17346;DHT22;8790;53.590;10.002;2023-05-07T07:48:22;10.90;99.90
17346;DHT22;8790;53.590;10.002;2023-05-07T07:50:53;10.90;99.90
17346;DHT22;8790;53.590;10.002;2023-05-07T07:53:26;11.00;99.90
17346;DHT22;8790;53.590;10.002;2023-05-07T07:55:58;11.00;99.90
17346;DHT22;8790;53.590;10.002;2023-05-07T07:58:31;11.00;99.90
17346;DHT22;8790;53.590;10.002;2023-05-07T08:01:06;11.00;99.90
17346;DHT22;8790;53.590;10.002;2023-05-07T08:03:38;11.00;99.90
17346;DHT22;8790;53.590;10.002;2023-05-07T08:06:10;11.10;99.90
17346;DHT22;8790;53.590;10.002;2023-05-07T08:08:42;11.00;99.90
17346;DHT22;8790;53.590;10.002;2023-05-07T08:11:14;11.10;99.90
17346;DHT22;8790;53.590;10.002;2023-05-07T08:13:46;11.10;99.90
17346;DHT22;8790;53.590;10.002;2023-05-07T08:16:19;11.10;99.90
17346;DHT22;8790;53.590;10.002;2023-05-07T08:18:51;11.20;99.90
17346;DHT22;8790;53.590;10.002;2023-05-07T08:21:23;11.20;99.90
17346;DHT22;8790;53.590;10.002;2023-05-07T08:23:55;11.20;99.90
17346;DHT22;8790;53.590;10.002;2023-05-07T08:26:27;11.20;99.90
17346;DHT22;8790;53.590;10.002;2023-05-07T08:28:59;11.20;99.90
17346;DHT22;8790;53.590;10.002;2023-05-07T08:31:32;11.20;99.90
17346;DHT22;8790;53.590;10.002;2023-05-07T08:34:04;11.20;99.90
17346;DHT22;8790;53.590;10.002;2023-05-07T08:36:37;11.10;99.90
17346;DHT22;8790;53.590;10.002;2023-05-07T08:39:08;11.20;99.90
17346;DHT22;8790;53.590;10.002;2023-05-07T08:41:40;11.20;99.90
17346;DHT22;8790;53.590;10.002;2023-05-07T08:44:14;11.20;99.90
17346;DHT22;8790;53.590;10.002;2023-05-07T08:46:52;11.10;99.90
17346;DHT22;8790;53.590;10.002;2023-05-07T08:49:25;11.20;99.90
17346;DHT22;8790;53.590;10.002;2023-05-07T08:51:57;11.20;99.90
17346;DHT22;8790;53.590;10.002;2023-05-07T08:54:30;11.20;99.90
17346;DHT22;8790;53.590;10.002;2023-05-07T08:57:03;11.30;99.90
17346;DHT22;8790;53.590;10.002;2023-05-07T08:59:39;11.30;99.90
17346;DHT22;8790;53.590;10.002;2023-05-07T09:02:14;11.30;99.90
17346;DHT22;8790;53.590;10.002;2023-05-07T09:04:46;11.20;99.90
17346;DHT22;8790;53.590;10.002;2023-05-07T09:07:19;11.30;99.90
17346;DHT22;8790;53.590;10.002;2023-05-07T09:09:51;11.30;99.90
17346;DHT22;8790;53.590;10.002;2023-05-07T09:12:23;11.30;99.90
17346;DHT22;8790;53.590;10.002;2023-05-07T09:14:55;11.30;99.90
17346;DHT22;8790;53.590;10.002;2023-05-07T09:17:29;11.30;99.90
17346;DHT22;8790;53.590;10.002;2023-05-07T09:20:05;11.40;99.90
17346;DHT22;8790;53.590;10.002;2023-05-07T09:22:38;11.40;99.90
17346;DHT22;8790;53.590;10.002;2023-05-07T09:25:13;11.50;99.90
17346;DHT22;8790;53.590;10.002;2023-05-07T09:27:46;11.50;99.90
17346;DHT22;8790;53.590;10.002;2023-05-07T09:30:18;11.40;99.90
17346;DHT22;8790;53.590;10.002;2023-05-07T09:32:51;11.50;99.90
17346;DHT22;8790;53.590;10.002;2023-05-07T09:35:26;11.50;99.90
17346;DHT22;8790;53.590;10.002;2023-05-07T09:38:02;11.50;99.90
17346;DHT22;8790;53.590;10.002;2023-05-07T09:40:36;11.50;99.90
17346;DHT22;8790;53.590;10.002;2023-05-07T09:43:13;11.60;99.90
17346;DHT22;8790;53.590;10.002;2023-05-07T09:45:55;11.60;99.90
17346;DHT22;8790;53.590;10.002;2023-05-07T09:48:33;11.60;99.90
17346;DHT22;8790;53.590;10.002;2023-05-07T09:51:24;11.60;99.90
17346;DHT22;8790;53.590;10.002;2023-05-07T09:53:58;11.60;99.90
17346;DHT22;8790;53.590;10.002;2023-05-07T09:56:32;11.70;99.90
17346;DHT22;8790;53.590;10.002;2023-05-07T09:59:05;11.70;99.90
17346;DHT22;8790;53.590;10.002;2023-05-07T10:01:38;11.70;99.90
17346;DHT22;8790;53.590;10.002;2023-05-07T10:04:14;11.70;99.90
17346;DHT22;8790;53.590;10.002;2023-05-07T10:06:47;11.80;99.90
17346;DHT22;8790;53.590;10.002;2023-05-07T10:09:21;11.70;99.90
17346;DHT22;8790;53.590;10.002;2023-05-07T10:11:54;11.80;99.90
17346;DHT22;8790;53.590;10.002;2023-05-07T10:14:27;11.80;99.90
17346;DHT22;8790;53.590;10.002;2023-05-07T10:16:59;11.90;99.90
17346;DHT22;8790;53.590;10.002;2023-05-07T10:19:34;11.80;99.90
17346;DHT22;8790;53.590;10.002;2023-05-07T10:22:08;11.80;99.90
17346;DHT22;8790;53.590;10.002;2023-05-07T10:24:47;11.80;99.90
17346;DHT22;8790;53.590;10.002;2023-05-07T10:27:22;11.80;99.90
17346;DHT22;8790;53.590;10.002;2023-05-07T10:30:07;11.90;99.90
17346;DHT22;8790;53.590;10.002;2023-05-07T10:32:46;11.90;99.90
17346;DHT22;8790;53.590;10.002;2023-05-07T10:35:30;11.90;99.90
17346;DHT22;8790;53.590;10.002;2023-05-07T10:38:05;11.90;99.90
17346;DHT22;8790;53.590;10.002;2023-05-07T10:40:39;11.90;99.90
17346;DHT22;8790;53.590;10.002;2023-05-07T10:43:12;11.90;99.90
17346;DHT22;8790;53.590;10.002;2023-05-07T10:46:10;12.00;99.90
17346;DHT22;8790;53.590;10.002;2023-05-07T10:49:08;11.90;99.90
17346;DHT22;8790;53.590;10.002;2023-05-07T10:52:13;12.00;99.90
17346;DHT22;8790;53.590;10.002;2023-05-07T10:55:19;12.00;99.90
17346;DHT22;8790;53.590;10.002;2023-05-07T10:58:22;12.00;99.90
17346;DHT22;8790;53.590;10.002;2023-05-07T11:00:59;12.00;99.90
17346;DHT22;8790;53.590;10.002;2023-05-07T11:04:13;12.00;99.90
17346;DHT22;8790;53.590;10.002;2023-05-07T11:10:08;12.10;99.90
17346;DHT22;8790;53.590;10.002;2023-05-07T11:13:06;12.10;99.90
17346;DHT22;8790;53.590;10.002;2023-05-07T11:15:50;12.10;99.90
17346;DHT22;8790;53.590;10.002;2023-05-07T11:18:46;12.20;99.90
17346;DHT22;8790;53.590;10.002;2023-05-07T11:21:32;12.30;99.90
17346;DHT22;8790;53.590;10.002;2023-05-07T11:24:11;12.40;99.90
17346;DHT22;8790;53.590;10.002;2023-05-07T11:26:58;12.40;99.90
17346;DHT22;8790;53.590;10.002;2023-05-07T11:29:31;12.50;99.90
17346;DHT22;8790;53.590;10.002;2023-05-07T11:32:14;12.50;99.90
17346;DHT22;8790;53.590;10.002;2023-05-07T11:34:53;12.60;99.90
17346;DHT22;8790;53.590;10.002;2023-05-07T11:37:26;12.60;99.90
17346;DHT22;8790;53.590;10.002;2023-05-07T11:40:08;12.60;99.90
17346;DHT22;8790;53.590;10.002;2023-05-07T11:42:42;12.60;99.90
17346;DHT22;8790;53.590;10.002;2023-05-07T11:45:23;12.70;99.90
17346;DHT22;8790;53.590;10.002;2023-05-07T11:47:55;12.80;99.90
17346;DHT22;8790;53.590;10.002;2023-05-07T11:50:27;12.80;99.90
17346;DHT22;8790;53.590;10.002;2023-05-07T11:52:59;12.90;99.90
17346;DHT22;8790;53.590;10.002;2023-05-07T11:55:30;12.90;99.90
17346;DHT22;8790;53.590;10.002;2023-05-07T11:58:03;13.00;99.90
17346;DHT22;8790;53.590;10.002;2023-05-07T12:00:35;13.10;99.90
17346;DHT22;8790;53.590;10.002;2023-05-07T12:03:07;13.10;99.90
17346;DHT22;8790;53.590;10.002;2023-05-07T12:05:39;13.20;99.90
17346;DHT22;8790;53.590;10.002;2023-05-07T12:08:14;13.20;99.90
17346;DHT22;8790;53.590;10.002;2023-05-07T12:10:47;13.30;99.90
17346;DHT22;8790;53.590;10.002;2023-05-07T12:13:22;13.30;99.90
17346;DHT22;8790;53.590;10.002;2023-05-07T12:15:55;13.30;99.90
17346;DHT22;8790;53.590;10.002;2023-05-07T12:18:28;13.40;99.90
17346;DHT22;8790;53.590;10.002;2023-05-07T12:21:00;13.40;99.90
17346;DHT22;8790;53.590;10.002;2023-05-07T12:23:33;13.50;99.90
17346;DHT22;8790;53.590;10.002;2023-05-07T12:26:05;13.50;99.90
17346;DHT22;8790;53.590;10.002;2023-05-07T12:28:38;13.50;99.90
17346;DHT22;8790;53.590;10.002;2023-05-07T12:31:10;13.50;99.90
17346;DHT22;8790;53.590;10.002;2023-05-07T12:33:42;13.60;99.90
17346;DHT22;8790;53.590;10.002;2023-05-07T12:36:14;13.70;99.90
17346;DHT22;8790;53.590;10.002;2023-05-07T12:38:49;13.70;99.90
17346;DHT22;8790;53.590;10.002;2023-05-07T12:41:21;13.80;99.90
17346;DHT22;8790;53.590;10.002;2023-05-07T12:43:58;13.80;99.90
17346;DHT22;8790;53.590;10.002;2023-05-07T12:46:30;13.80;99.90
17346;DHT22;8790;53.590;10.002;2023-05-07T12:49:01;13.90;99.90
17346;DHT22;8790;53.590;10.002;2023-05-07T12:51:35;13.90;99.90
17346;DHT22;8790;53.590;10.002;2023-05-07T12:54:06;14.00;99.90
17346;DHT22;8790;53.590;10.002;2023-05-07T12:56:39;14.00;99.90
17346;DHT22;8790;53.590;10.002;2023-05-07T12:59:13;14.10;99.90
17346;DHT22;8790;53.590;10.002;2023-05-07T13:01:45;14.20;99.90
17346;DHT22;8790;53.590;10.002;2023-05-07T13:04:17;14.20;99.90
17346;DHT22;8790;53.590;10.002;2023-05-07T13:06:48;14.20;99.90
17346;DHT22;8790;53.590;10.002;2023-05-07T13:09:20;14.20;99.90
17346;DHT22;8790;53.590;10.002;2023-05-07T13:11:52;14.20;99.90
17346;DHT22;8790;53.590;10.002;2023-05-07T13:14:25;14.20;99.90
17346;DHT22;8790;53.590;10.002;2023-05-07T13:16:57;14.30;99.90
17346;DHT22;8790;53.590;10.002;2023-05-07T13:19:28;14.30;99.90
17346;DHT22;8790;53.590;10.002;2023-05-07T13:22:00;14.30;99.90
17346;DHT22;8790;53.590;10.002;2023-05-07T13:24:32;14.40;99.90
17346;DHT22;8790;53.590;10.002;2023-05-07T13:27:04;14.40;99.90
17346;DHT22;8790;53.590;10.002;2023-05-07T13:29:37;14.40;99.90
17346;DHT22;8790;53.590;10.002;2023-05-07T13:32:08;14.50;99.90
17346;DHT22;8790;53.590;10.002;2023-05-07T13:34:40;14.50;99.90
17346;DHT22;8790;53.590;10.002;2023-05-07T13:37:12;14.50;99.90
17346;DHT22;8790;53.590;10.002;2023-05-07T13:39:44;14.60;99.90
17346;DHT22;8790;53.590;10.002;2023-05-07T13:42:16;14.60;99.90
17346;DHT22;8790;53.590;10.002;2023-05-07T13:44:49;14.70;99.90
17346;DHT22;8790;53.590;10.002;2023-05-07T13:47:21;14.80;99.90
17346;DHT22;8790;53.590;10.002;2023-05-07T13:49:53;14.90;99.90
17346;DHT22;8790;53.590;10.002;2023-05-07T13:52:24;15.10;99.90
17346;DHT22;8790;53.590;10.002;2023-05-07T13:54:56;15.30;99.90
17346;DHT22;8790;53.590;10.002;2023-05-07T13:57:29;15.40;99.90
17346;DHT22;8790;53.590;10.002;2023-05-07T14:00:02;15.60;99.90
17346;DHT22;8790;53.590;10.002;2023-05-07T14:02:45;15.80;99.90
17346;DHT22;8790;53.590;10.002;2023-05-07T14:05:17;16.00;99.90
17346;DHT22;8790;53.590;10.002;2023-05-07T14:07:50;16.20;99.90
17346;DHT22;8790;53.590;10.002;2023-05-07T14:10:22;16.50;99.90
17346;DHT22;8790;53.590;10.002;2023-05-07T14:12:54;16.70;99.90
17346;DHT22;8790;53.590;10.002;2023-05-07T14:15:27;16.90;99.90
17346;DHT22;8790;53.590;10.002;2023-05-07T14:18:00;17.20;99.90
17346;DHT22;8790;53.590;10.002;2023-05-07T14:20:32;17.40;99.90
17346;DHT22;8790;53.590;10.002;2023-05-07T14:23:07;17.50;99.90
17346;DHT22;8790;53.590;10.002;2023-05-07T14:25:38;17.70;99.90
17346;DHT22;8790;53.590;10.002;2023-05-07T14:28:10;18.00;99.90
17346;DHT22;8790;53.590;10.002;2023-05-07T14:30:43;18.30;99.90
17346;DHT22;8790;53.590;10.002;2023-05-07T14:33:15;18.50;99.90
17346;DHT22;8790;53.590;10.002;2023-05-07T14:35:47;18.70;99.90
17346;DHT22;8790;53.590;10.002;2023-05-07T14:38:20;18.90;99.90
17346;DHT22;8790;53.590;10.002;2023-05-07T14:40:52;19.10;99.90
17346;DHT22;8790;53.590;10.002;2023-05-07T14:43:26;19.20;99.90
17346;DHT22;8790;53.590;10.002;2023-05-07T14:45:59;19.20;99.90
17346;DHT22;8790;53.590;10.002;2023-05-07T14:48:31;19.20;99.90
17346;DHT22;8790;53.590;10.002;2023-05-07T14:51:02;19.20;99.90
17346;DHT22;8790;53.590;10.002;2023-05-07T14:53:34;19.20;99.90
17346;DHT22;8790;53.590;10.002;2023-05-07T14:56:06;19.10;99.90
17346;DHT22;8790;53.590;10.002;2023-05-07T14:58:38;18.80;99.90
17346;DHT22;8790;53.590;10.002;2023-05-07T15:01:11;18.60;99.90
17346;DHT22;8790;53.590;10.002;2023-05-07T15:03:43;18.50;99.90
17346;DHT22;8790;53.590;10.002;2023-05-07T15:06:14;18.30;99.90
17346;DHT22;8790;53.590;10.002;2023-05-07T15:08:46;18.20;99.90
17346;DHT22;8790;53.590;10.002;2023-05-07T15:11:19;18.10;99.90
17346;DHT22;8790;53.590;10.002;2023-05-07T15:13:50;17.90;99.90
17346;DHT22;8790;53.590;10.002;2023-05-07T15:16:24;17.90;99.90
17346;DHT22;8790;53.590;10.002;2023-05-07T15:18:56;17.70;99.90
17346;DHT22;8790;53.590;10.002;2023-05-07T15:21:27;17.60;99.90
17346;DHT22;8790;53.590;10.002;2023-05-07T15:24:01;17.50;99.90
17346;DHT22;8790;53.590;10.002;2023-05-07T15:26:33;17.50;99.90
17346;DHT22;8790;53.590;10.002;2023-05-07T15:29:05;17.30;99.90
17346;DHT22;8790;53.590;10.002;2023-05-07T15:31:41;17.20;99.90
17346;DHT22;8790;53.590;10.002;2023-05-07T15:34:13;17.10;99.90
17346;DHT22;8790;53.590;10.002;2023-05-07T15:36:45;17.10;99.90
17346;DHT22;8790;53.590;10.002;2023-05-07T15:39:17;17.10;99.90
17346;DHT22;8790;53.590;10.002;2023-05-07T15:41:49;17.00;99.90
17346;DHT22;8790;53.590;10.002;2023-05-07T15:44:20;17.00;99.90
17346;DHT22;8790;53.590;10.002;2023-05-07T15:46:53;17.00;99.90
17346;DHT22;8790;53.590;10.002;2023-05-07T15:49:25;17.00;99.90
17346;DHT22;8790;53.590;10.002;2023-05-07T15:51:57;16.90;99.90
17346;DHT22;8790;53.590;10.002;2023-05-07T15:54:29;16.90;99.90
17346;DHT22;8790;53.590;10.002;2023-05-07T15:57:01;16.70;99.90
17346;DHT22;8790;53.590;10.002;2023-05-07T15:59:33;16.70;99.90
17346;DHT22;8790;53.590;10.002;2023-05-07T16:02:07;16.70;99.90
17346;DHT22;8790;53.590;10.002;2023-05-07T16:04:39;16.60;99.90
17346;DHT22;8790;53.590;10.002;2023-05-07T16:07:11;16.50;99.90
17346;DHT22;8790;53.590;10.002;2023-05-07T16:09:43;16.50;99.90
17346;DHT22;8790;53.590;10.002;2023-05-07T16:12:15;16.50;99.90
17346;DHT22;8790;53.590;10.002;2023-05-07T16:14:47;16.40;99.90